createdAt,value
2023-02-19T00:01:35.082Z,13.77
2023-02-19T00:05:45.691Z,12.77
2023-02-19T00:07:50.700Z,12.45
2023-02-19T00:09:55.942Z,12.88
2023-02-19T00:12:01.225Z,10.75
2023-02-19T00:14:09.521Z,12.75
2023-02-19T00:16:22.054Z,14.25
2023-02-19T00:18:27.084Z,9.02
2023-02-19T00:20:31.956Z,12.07
2023-02-19T00:22:36.972Z,9.57
2023-02-19T00:24:42.035Z,9.00
2023-02-19T00:26:49.465Z,7.75
2023-02-19T00:28:58.284Z,6.68
2023-02-19T00:31:12.553Z,7.32
2023-02-19T00:33:18.658Z,8.43
2023-02-19T00:35:24.255Z,6.22
2023-02-19T00:37:29.738Z,9.52
2023-02-19T00:39:35.337Z,7.15
2023-02-19T00:41:40.809Z,6.80
2023-02-19T00:43:45.746Z,9.10
2023-02-19T00:45:50.650Z,7.72
2023-02-19T00:47:58.908Z,5.95
2023-02-19T00:52:09.153Z,7.25
2023-02-19T00:54:16.352Z,6.18
2023-02-19T00:56:22.130Z,3.72
2023-02-19T00:58:27.438Z,4.93
2023-02-19T01:00:33.599Z,6.45
2023-02-19T01:02:39.154Z,4.88
2023-02-19T01:04:46.766Z,5.35
2023-02-19T01:06:52.525Z,4.60
2023-02-19T01:08:57.723Z,6.20
2023-02-19T01:11:04.443Z,6.13
2023-02-19T01:13:09.719Z,8.23
2023-02-19T01:15:15.171Z,4.93
2023-02-19T01:17:20.070Z,6.35
2023-02-19T01:19:25.556Z,7.32
2023-02-19T01:21:34.339Z,10.95
2023-02-19T01:23:39.890Z,5.00
2023-02-19T01:25:45.346Z,6.07
2023-02-19T01:27:51.179Z,6.88
2023-02-19T01:29:56.066Z,7.97
2023-02-19T01:32:01.936Z,9.35
2023-02-19T01:34:07.769Z,6.80
2023-02-19T01:36:13.016Z,7.68
2023-02-19T01:38:20.494Z,7.70
2023-02-19T01:40:26.166Z,9.45
2023-02-19T01:42:31.360Z,5.53
2023-02-19T01:45:27.335Z,9.65
2023-02-19T01:47:32.805Z,9.10
2023-02-19T01:49:48.649Z,4.82
2023-02-19T01:52:00.143Z,9.90
2023-02-19T01:54:12.142Z,8.75
2023-02-19T01:56:20.175Z,6.53
2023-02-19T01:58:27.024Z,6.88
2023-02-19T02:00:32.632Z,7.78
2023-02-19T02:02:37.809Z,4.80
2023-02-19T02:04:42.763Z,5.22
2023-02-19T02:06:52.843Z,4.57
2023-02-19T02:09:13.751Z,4.88
2023-02-19T02:11:22.389Z,4.43
2023-02-19T02:13:27.496Z,4.13
2023-02-19T02:15:46.391Z,6.20
2023-02-19T02:17:59.304Z,5.68
2023-02-19T02:20:36.107Z,7.53
2023-02-19T02:22:47.333Z,5.10
2023-02-19T02:25:21.347Z,5.88
2023-02-19T02:27:46.674Z,6.22
2023-02-19T02:30:42.311Z,2.75
2023-02-19T02:32:56.267Z,5.05
2023-02-19T02:35:06.998Z,4.72
2023-02-19T02:37:14.127Z,3.35
2023-02-19T02:39:24.726Z,5.15
2023-02-19T02:41:29.912Z,3.72
2023-02-19T02:43:35.524Z,4.05
2023-02-19T02:45:45.110Z,3.57
2023-02-19T02:48:14.516Z,3.45
2023-02-19T02:50:25.504Z,3.50
2023-02-19T02:52:43.462Z,4.18
2023-02-19T02:55:02.840Z,4.93
2023-02-19T02:57:09.701Z,6.22
2023-02-19T02:59:28.576Z,5.25
2023-02-19T03:01:54.799Z,5.03
2023-02-19T03:04:08.475Z,4.53
2023-02-19T03:06:18.114Z,4.00
2023-02-19T03:08:29.722Z,5.03
2023-02-19T03:10:41.767Z,4.03
2023-02-19T03:13:01.261Z,4.50
2023-02-19T03:15:25.292Z,3.97
2023-02-19T03:17:54.380Z,3.55
2023-02-19T03:20:04.154Z,4.47
2023-02-19T03:22:20.047Z,2.72
2023-02-19T03:24:51.115Z,3.03
2023-02-19T03:26:58.484Z,3.38
2023-02-19T03:29:20.807Z,3.88
2023-02-19T03:31:30.448Z,4.05
2023-02-19T03:33:43.488Z,4.88
2023-02-19T03:35:53.787Z,4.15
2023-02-19T03:38:07.323Z,4.82
2023-02-19T03:40:13.334Z,2.88
2023-02-19T03:42:30.696Z,3.60
2023-02-19T03:44:44.712Z,5.40
2023-02-19T03:46:57.610Z,3.83
2023-02-19T03:49:13.364Z,4.63
2023-02-19T03:51:35.772Z,5.35
2023-02-19T03:53:52.676Z,4.10
2023-02-19T03:56:10.377Z,5.57
2023-02-19T03:58:25.199Z,5.68
2023-02-19T04:00:35.604Z,5.55
2023-02-19T04:02:50.250Z,5.03
2023-02-19T04:05:04.786Z,4.53
2023-02-19T04:07:10.553Z,4.70
2023-02-19T04:09:19.387Z,3.45
2023-02-19T04:11:30.445Z,6.00
2023-02-19T04:13:46.459Z,3.15
2023-02-19T04:15:56.496Z,3.05
2023-02-19T04:18:05.579Z,3.35
2023-02-19T04:20:16.006Z,4.05
2023-02-19T04:22:21.507Z,3.17
2023-02-19T04:24:31.357Z,2.28
2023-02-19T04:26:37.700Z,3.38
2023-02-19T04:28:44.202Z,1.55
2023-02-19T04:30:49.487Z,3.08
2023-02-19T04:32:54.383Z,3.70
2023-02-19T04:34:59.968Z,1.98
2023-02-19T04:37:08.173Z,2.25
2023-02-19T04:39:13.099Z,1.50
2023-02-19T04:41:17.957Z,1.50
2023-02-19T04:43:23.574Z,1.80
2023-02-19T04:45:28.764Z,1.83
2023-02-19T04:47:35.716Z,1.35
2023-02-19T04:49:40.817Z,1.38
2023-02-19T04:51:45.689Z,2.38
2023-02-19T04:53:53.646Z,2.35
2023-02-19T04:55:58.511Z,2.72
2023-02-19T04:58:03.880Z,2.13
2023-02-19T05:00:12.651Z,2.35
2023-02-19T05:02:17.551Z,3.90
2023-02-19T05:04:24.221Z,2.08
2023-02-19T05:06:29.558Z,4.70
2023-02-19T05:08:35.020Z,2.10
2023-02-19T05:10:42.852Z,3.30
2023-02-19T05:12:48.363Z,3.63
2023-02-19T05:14:53.269Z,4.40
2023-02-19T05:16:58.423Z,2.63
2023-02-19T05:19:04.046Z,2.95
2023-02-19T05:21:10.147Z,3.38
2023-02-19T05:23:15.747Z,4.32
2023-02-19T05:25:20.837Z,3.72
2023-02-19T05:27:28.639Z,4.28
2023-02-19T05:31:39.542Z,3.17
2023-02-19T05:33:51.529Z,3.75
2023-02-19T05:35:58.689Z,4.07
2023-02-19T05:38:03.720Z,3.55
2023-02-19T05:40:09.496Z,5.75
2023-02-19T05:42:17.135Z,3.47
2023-02-19T05:44:24.643Z,2.22
2023-02-19T05:46:32.452Z,4.00
2023-02-19T05:48:38.558Z,1.80
2023-02-19T05:50:43.443Z,5.82
2023-02-19T05:52:52.476Z,3.65
2023-02-19T05:54:57.347Z,8.50
2023-02-19T05:57:02.519Z,3.38
2023-02-19T05:59:10.128Z,5.75
2023-02-19T06:03:29.114Z,2.60
2023-02-19T06:05:34.035Z,3.75
2023-02-19T06:07:39.967Z,2.70
2023-02-19T06:09:44.928Z,6.35
2023-02-19T06:11:49.788Z,4.70
2023-02-19T06:13:55.624Z,3.20
2023-02-19T06:16:00.542Z,3.38
2023-02-19T06:18:08.685Z,2.55
2023-02-19T06:20:14.494Z,3.00
2023-02-19T06:22:19.825Z,1.05
2023-02-19T06:24:24.692Z,1.33
2023-02-19T06:26:30.078Z,4.63
2023-02-19T06:28:35.522Z,2.70
2023-02-19T06:30:41.541Z,1.58
2023-02-19T06:32:46.439Z,1.55
2023-02-19T06:34:53.953Z,3.08
2023-02-19T06:36:59.070Z,1.60
2023-02-19T06:39:04.818Z,2.75
2023-02-19T06:41:11.382Z,3.47
2023-02-19T06:43:16.474Z,1.70
2023-02-19T06:45:21.909Z,1.70
2023-02-19T06:47:29.268Z,0.88
2023-02-19T06:49:34.158Z,1.88
2023-02-19T06:51:42.057Z,2.30
2023-02-19T06:53:47.561Z,1.67
2023-02-19T06:55:59.593Z,0.95
2023-02-19T06:58:05.356Z,1.60
2023-02-19T07:00:13.223Z,2.10
2023-02-19T07:04:23.658Z,1.30
2023-02-19T07:06:29.327Z,1.83
2023-02-19T07:08:37.208Z,3.17
2023-02-19T07:10:42.685Z,3.22
2023-02-19T07:12:48.345Z,3.67
2023-02-19T07:14:53.553Z,5.00
2023-02-19T07:16:58.625Z,4.85
2023-02-19T07:19:04.729Z,3.92
2023-02-19T07:21:13.547Z,4.20
2023-02-19T07:23:18.549Z,3.53
2023-02-19T07:25:26.020Z,4.53
2023-02-19T07:27:30.904Z,4.03
2023-02-19T07:29:36.456Z,3.33
2023-02-19T07:31:41.734Z,4.60
2023-02-19T07:33:47.290Z,5.00
2023-02-19T07:35:53.821Z,5.75
2023-02-19T07:37:58.796Z,5.38
2023-02-19T07:40:04.055Z,4.93
2023-02-19T07:42:12.581Z,6.15
2023-02-19T07:44:17.524Z,4.82
2023-02-19T07:46:25.440Z,3.97
2023-02-19T07:50:35.066Z,7.68
2023-02-19T07:52:40.014Z,4.82
2023-02-19T07:54:45.154Z,5.13
2023-02-19T07:56:50.036Z,4.93
2023-02-19T07:58:57.545Z,4.57
2023-02-19T08:01:11.719Z,4.72
2023-02-19T08:03:14.260Z,5.57
2023-02-19T08:05:19.456Z,4.72
2023-02-19T08:07:24.332Z,5.15
2023-02-19T08:09:29.253Z,4.85
2023-02-19T08:11:46.863Z,3.50
2023-02-19T08:13:53.032Z,1.77
2023-02-19T08:16:21.868Z,3.80
2023-02-19T08:18:31.880Z,1.95
2023-02-19T08:20:37.392Z,3.40
2023-02-19T08:22:43.275Z,1.38
2023-02-19T08:24:48.471Z,1.67
2023-02-19T08:26:53.480Z,2.50
2023-02-19T08:28:59.060Z,2.88
2023-02-19T08:31:10.200Z,2.65
2023-02-19T08:33:18.510Z,2.85
2023-02-19T08:35:24.716Z,1.65
2023-02-19T08:37:30.126Z,2.80
2023-02-19T08:39:35.565Z,1.60
2023-02-19T08:41:40.620Z,4.13
2023-02-19T08:43:46.012Z,5.40
2023-02-19T08:45:51.528Z,2.47
2023-02-19T08:47:59.246Z,2.08
2023-02-19T08:50:05.123Z,4.30
2023-02-19T08:52:10.335Z,2.22
2023-02-19T08:54:15.237Z,2.85
2023-02-19T08:56:20.601Z,3.30
2023-02-19T08:58:26.688Z,3.92
2023-02-19T09:00:31.587Z,4.35
2023-02-19T09:02:37.387Z,2.35
2023-02-19T09:04:44.890Z,2.47
2023-02-19T09:06:50.465Z,2.80
2023-02-19T09:08:55.421Z,1.85
2023-02-19T09:11:01.915Z,2.45
2023-02-19T09:13:08.466Z,2.30
2023-02-19T09:15:13.391Z,2.60
2023-02-19T09:17:21.646Z,2.70
2023-02-19T09:19:26.687Z,3.00
2023-02-19T09:21:34.602Z,4.25
2023-02-19T09:23:40.201Z,2.97
2023-02-19T09:25:45.876Z,3.40
2023-02-19T09:27:50.918Z,4.13
2023-02-19T09:29:56.126Z,3.92
2023-02-19T09:32:01.854Z,4.03
2023-02-19T09:34:09.028Z,4.40
2023-02-19T09:36:14.999Z,6.00
2023-02-19T09:38:22.494Z,4.78
2023-02-19T09:40:27.416Z,3.40
2023-02-19T09:42:34.890Z,7.60
2023-02-19T09:44:44.721Z,5.60
2023-02-19T09:46:52.480Z,6.90
2023-02-19T09:49:02.172Z,5.07
2023-02-19T09:51:08.031Z,6.78
2023-02-19T09:53:22.031Z,5.30
2023-02-19T09:55:36.335Z,3.83
2023-02-19T09:57:43.895Z,4.45
2023-02-19T09:59:53.556Z,4.75
2023-02-19T10:02:06.190Z,4.30
2023-02-19T10:04:13.617Z,6.32
2023-02-19T10:06:24.086Z,3.20
2023-02-19T10:08:35.490Z,3.35
2023-02-19T10:10:43.840Z,3.53
2023-02-19T10:12:52.093Z,3.00
2023-02-19T10:15:04.245Z,5.15
2023-02-19T10:17:14.357Z,4.85
2023-02-19T10:19:19.942Z,2.45
2023-02-19T10:21:28.703Z,3.35
2023-02-19T10:23:34.436Z,4.32
2023-02-19T10:25:46.205Z,1.73
2023-02-19T10:27:51.661Z,4.15
2023-02-19T10:29:56.543Z,3.88
2023-02-19T10:32:21.355Z,3.40
2023-02-19T10:34:26.657Z,5.43
2023-02-19T10:36:35.234Z,2.03
2023-02-19T10:38:48.168Z,1.17
2023-02-19T10:41:03.771Z,2.95
2023-02-19T10:43:09.024Z,3.50
2023-02-19T10:45:22.789Z,2.15
2023-02-19T10:47:29.933Z,3.20
2023-02-19T10:49:40.431Z,3.40
2023-02-19T10:51:45.694Z,3.70
2023-02-19T10:53:52.829Z,3.85
2023-02-19T10:56:13.792Z,3.08
2023-02-19T10:58:28.622Z,2.72
2023-02-19T11:00:34.430Z,3.35
2023-02-19T11:02:39.397Z,2.65
2023-02-19T11:04:45.576Z,3.05
2023-02-19T11:06:50.880Z,4.80
2023-02-19T11:09:00.207Z,3.25
2023-02-19T11:11:05.614Z,3.28
2023-02-19T11:13:19.266Z,3.25
2023-02-19T11:15:31.799Z,3.90
2023-02-19T11:17:37.087Z,1.58
2023-02-19T11:19:48.627Z,2.47
2023-02-19T11:21:54.727Z,2.70
2023-02-19T11:24:00.779Z,2.35
2023-02-19T11:26:09.780Z,4.53
2023-02-19T11:28:35.029Z,2.92
2023-02-19T11:30:43.814Z,2.45
2023-02-19T11:32:49.032Z,2.33
2023-02-19T11:34:54.169Z,1.77
2023-02-19T11:37:14.037Z,2.13
2023-02-19T11:39:34.261Z,4.18
2023-02-19T11:42:05.272Z,3.38
2023-02-19T11:44:32.850Z,4.50
2023-02-19T11:46:47.217Z,4.20
2023-02-19T11:49:01.836Z,2.85
2023-02-19T11:51:35.515Z,4.03
2023-02-19T11:53:50.059Z,4.78
2023-02-19T11:56:13.753Z,2.67
2023-02-19T11:59:01.074Z,3.05
2023-02-19T12:01:23.086Z,4.43
2023-02-19T12:04:06.115Z,5.38
2023-02-19T12:06:26.063Z,3.85
2023-02-19T12:09:20.791Z,3.22
2023-02-19T12:11:53.613Z,4.72
2023-02-19T12:14:24.686Z,3.35
2023-02-19T12:16:40.310Z,3.60
2023-02-19T12:19:26.838Z,5.53
2023-02-19T12:21:47.164Z,3.85
2023-02-19T12:24:21.123Z,3.20
2023-02-19T12:26:31.957Z,6.03
2023-02-19T12:29:03.151Z,7.30
2023-02-19T12:31:56.077Z,7.45
2023-02-19T12:34:31.702Z,5.45
2023-02-19T12:36:45.279Z,7.75
2023-02-19T12:39:01.039Z,6.38
2023-02-19T12:41:28.239Z,4.95
2023-02-19T12:43:37.153Z,5.67
2023-02-19T12:45:48.617Z,6.88
2023-02-19T12:48:04.265Z,5.72
2023-02-19T12:50:19.639Z,5.05
2023-02-19T12:52:29.062Z,7.45
2023-02-19T12:54:38.314Z,7.07
2023-02-19T12:56:49.887Z,5.20
2023-02-19T12:59:02.191Z,4.05
2023-02-19T13:01:08.457Z,4.13
2023-02-19T13:03:25.750Z,4.95
2023-02-19T13:05:44.415Z,7.28
2023-02-19T13:08:02.016Z,3.55
2023-02-19T13:10:25.120Z,7.55
2023-02-19T13:12:36.097Z,4.28
2023-02-19T13:14:45.714Z,3.38
2023-02-19T13:16:55.447Z,4.78
2023-02-19T13:19:06.753Z,4.70
2023-02-19T13:21:13.160Z,4.88
2023-02-19T13:23:37.832Z,7.43
2023-02-19T13:26:01.742Z,3.55
2023-02-19T13:28:27.984Z,4.07
2023-02-19T13:31:07.208Z,9.52
2023-02-19T13:33:34.365Z,3.97
2023-02-19T13:36:07.060Z,4.95
2023-02-19T13:38:15.395Z,8.02
2023-02-19T13:40:33.826Z,3.70
2023-02-19T13:42:40.334Z,3.85
2023-02-19T13:44:55.179Z,9.23
2023-02-19T13:47:06.198Z,6.22
2023-02-19T13:49:52.998Z,6.03
2023-02-19T13:52:01.863Z,6.55
2023-02-19T13:54:23.847Z,7.05
2023-02-19T13:56:43.857Z,6.43
2023-02-19T13:59:01.511Z,7.30
2023-02-19T14:01:07.757Z,2.72
2023-02-19T14:03:47.984Z,4.50
2023-02-19T14:06:06.122Z,7.93
2023-02-19T14:08:37.176Z,7.00
2023-02-19T14:11:05.571Z,4.65
2023-02-19T14:13:11.873Z,4.80
2023-02-19T14:15:46.006Z,5.40
2023-02-19T14:17:51.546Z,5.45
2023-02-19T14:20:02.519Z,3.42
2023-02-19T14:23:01.969Z,3.17
2023-02-19T14:25:20.855Z,4.00
2023-02-19T14:27:28.862Z,10.85
2023-02-19T14:29:34.649Z,7.97
2023-02-19T14:31:40.989Z,4.60
2023-02-19T14:33:51.277Z,4.40
2023-02-19T14:36:00.823Z,5.75
2023-02-19T14:38:07.456Z,4.82
2023-02-19T14:40:20.292Z,5.00
2023-02-19T14:42:33.597Z,4.82
2023-02-19T14:44:53.288Z,6.03
2023-02-19T14:47:03.065Z,6.82
2023-02-19T14:49:18.204Z,4.88
2023-02-19T14:51:34.884Z,5.68
2023-02-19T14:53:45.638Z,6.00
2023-02-19T14:55:54.109Z,4.85
2023-02-19T14:58:06.868Z,6.93
2023-02-19T15:00:29.130Z,3.63
2023-02-19T15:02:35.492Z,3.80
2023-02-19T15:04:40.673Z,4.15
2023-02-19T15:06:46.003Z,3.75
2023-02-19T15:08:55.550Z,4.88
2023-02-19T15:11:00.923Z,4.20
2023-02-19T15:13:12.892Z,4.53
2023-02-19T15:15:25.060Z,3.75
2023-02-19T15:17:33.333Z,3.50
2023-02-19T15:19:40.256Z,4.90
2023-02-19T15:21:50.734Z,4.45
2023-02-19T15:23:58.844Z,4.38
2023-02-19T15:26:04.688Z,3.78
2023-02-19T15:28:32.624Z,5.22
2023-02-19T15:30:38.257Z,11.82
2023-02-19T15:32:43.264Z,4.22
2023-02-19T15:34:58.092Z,3.53
2023-02-19T15:37:07.928Z,3.78
2023-02-19T15:39:24.256Z,3.72
2023-02-19T15:41:34.856Z,3.63
2023-02-19T15:43:50.745Z,2.45
2023-02-19T15:46:01.579Z,3.35
2023-02-19T15:48:11.679Z,2.88
2023-02-19T15:50:20.336Z,1.95
2023-02-19T15:52:41.957Z,1.50
2023-02-19T15:54:55.245Z,2.95
2023-02-19T15:57:09.235Z,1.92
2023-02-19T15:59:27.426Z,1.90
2023-02-19T16:01:34.365Z,2.03
2023-02-19T16:03:40.253Z,1.43
2023-02-19T16:05:45.708Z,2.20
2023-02-19T16:08:07.734Z,9.68
2023-02-19T16:10:26.349Z,5.18
2023-02-19T16:12:37.355Z,5.18
2023-02-19T16:14:45.449Z,2.85
2023-02-19T16:16:53.690Z,4.05
2023-02-19T16:18:59.744Z,5.20
2023-02-19T16:21:11.583Z,2.20
2023-02-19T16:23:24.529Z,4.28
2023-02-19T16:25:37.534Z,4.28
2023-02-19T16:27:45.043Z,1.88
2023-02-19T16:29:58.096Z,1.92
2023-02-19T16:32:05.849Z,1.50
2023-02-19T16:36:42.065Z,2.15
2023-02-19T16:39:20.053Z,1.80
2023-02-19T16:41:25.328Z,2.90
2023-02-19T16:43:34.253Z,1.98
2023-02-19T16:45:44.406Z,1.98
2023-02-19T16:47:51.944Z,1.67
2023-02-19T16:49:58.279Z,2.00
2023-02-19T16:52:04.810Z,1.02
2023-02-19T16:54:09.913Z,2.08
2023-02-19T16:56:18.892Z,1.08
2023-02-19T16:58:24.899Z,2.55
2023-02-19T17:00:32.509Z,2.53
2023-02-19T17:02:40.964Z,1.13
2023-02-19T17:04:46.150Z,1.58
2023-02-19T17:06:51.511Z,1.05
2023-02-19T17:08:56.863Z,1.52
2023-02-19T17:11:04.054Z,1.40
2023-02-19T17:13:09.046Z,1.03
2023-02-19T17:15:15.418Z,1.92
2023-02-19T17:17:23.402Z,1.65
2023-02-19T17:19:31.335Z,1.65
2023-02-19T17:21:37.866Z,1.05
2023-02-19T17:23:42.854Z,2.45
2023-02-19T17:25:47.863Z,2.28
2023-02-19T17:27:53.506Z,1.60
2023-02-19T17:29:58.463Z,3.42
2023-02-19T17:32:04.224Z,2.72
2023-02-19T17:34:09.863Z,2.78
2023-02-19T17:36:22.428Z,2.67
2023-02-19T17:38:28.571Z,1.85
2023-02-19T17:40:35.152Z,3.83
2023-02-19T17:42:40.703Z,2.63
2023-02-19T17:44:46.937Z,2.65
2023-02-19T17:46:53.446Z,3.85
2023-02-19T17:48:58.822Z,4.25
2023-02-19T17:51:03.943Z,2.30
2023-02-19T17:53:12.341Z,4.80
2023-02-19T17:55:20.200Z,3.20
2023-02-19T17:59:31.084Z,3.75
2023-02-19T18:01:36.158Z,4.32
2023-02-19T18:03:41.667Z,5.15
2023-02-19T18:05:46.942Z,4.95
2023-02-19T18:07:53.119Z,5.35
2023-02-19T18:10:00.838Z,8.43
2023-02-19T18:12:06.495Z,4.22
2023-02-19T18:14:11.428Z,3.95
2023-02-19T18:16:17.278Z,5.43
2023-02-19T18:18:23.609Z,5.50
2023-02-19T18:20:31.557Z,8.18
2023-02-19T18:22:36.568Z,6.82
2023-02-19T18:24:41.539Z,4.18
2023-02-19T18:26:49.526Z,5.10
2023-02-19T18:28:54.462Z,5.43
2023-02-19T18:30:59.564Z,3.45
2023-02-19T18:33:04.525Z,7.95
2023-02-19T18:35:11.467Z,6.40
2023-02-19T18:37:17.034Z,5.73
2023-02-19T18:39:22.062Z,4.80
2023-02-19T18:41:27.041Z,5.50
2023-02-19T18:43:34.576Z,6.53
2023-02-19T18:45:40.029Z,7.05
2023-02-19T18:47:44.980Z,7.40
2023-02-19T18:49:51.110Z,8.50
2023-02-19T18:51:56.057Z,6.20
2023-02-19T18:54:02.079Z,7.75
2023-02-19T18:56:09.168Z,8.43
2023-02-19T18:58:14.391Z,7.75
2023-02-19T19:00:26.598Z,6.95
2023-02-19T19:02:42.626Z,10.00
2023-02-19T19:04:57.157Z,7.60
2023-02-19T19:07:02.350Z,7.75
2023-02-19T19:09:08.671Z,6.15
2023-02-19T19:11:13.897Z,9.05
2023-02-19T19:13:19.227Z,7.53
2023-02-19T19:15:27.496Z,6.88
2023-02-19T19:17:32.454Z,5.25
2023-02-19T19:19:37.442Z,6.93
2023-02-19T19:21:42.360Z,5.40
2023-02-19T19:23:47.434Z,7.72
2023-02-19T19:25:54.095Z,6.00
2023-02-19T19:27:59.148Z,6.45
2023-02-19T19:30:04.171Z,5.72
2023-02-19T19:32:12.292Z,9.60
2023-02-19T19:34:18.109Z,5.50
2023-02-19T19:36:25.264Z,7.00
2023-02-19T19:38:30.186Z,8.50
2023-02-19T19:40:35.137Z,8.43
2023-02-19T19:42:40.095Z,6.72
2023-02-19T19:44:47.290Z,6.18
2023-02-19T19:46:54.372Z,5.53
2023-02-19T19:49:02.706Z,7.35
2023-02-19T19:51:08.115Z,7.68
2023-02-19T19:53:13.295Z,6.60
2023-02-19T19:55:18.885Z,9.70
2023-02-19T19:57:24.091Z,7.10
2023-02-19T19:59:29.085Z,7.57
2023-02-19T20:01:34.741Z,7.65
2023-02-19T20:03:42.272Z,5.82
2023-02-19T20:05:51.340Z,6.70
2023-02-19T20:07:56.979Z,7.82
2023-02-19T20:10:01.901Z,10.93
2023-02-19T20:12:07.895Z,8.00
2023-02-19T20:14:13.261Z,9.15
2023-02-19T20:16:18.369Z,12.45
2023-02-19T20:18:25.276Z,9.43
2023-02-19T20:20:31.581Z,13.40
2023-02-19T20:22:39.518Z,11.82
2023-02-19T20:26:49.649Z,9.10
2023-02-19T20:28:57.835Z,9.68
2023-02-19T20:31:03.520Z,9.23
2023-02-19T20:33:08.432Z,9.70
2023-02-19T20:35:13.595Z,10.27
2023-02-19T20:37:18.852Z,10.88
2023-02-19T20:39:29.204Z,10.77
2023-02-19T20:41:34.199Z,10.13
2023-02-19T20:43:39.294Z,10.35
2023-02-19T20:45:45.926Z,11.73
2023-02-19T20:47:50.910Z,11.15
2023-02-19T20:49:55.905Z,13.52
2023-02-19T20:52:03.046Z,16.05
2023-02-19T20:54:08.138Z,11.43
2023-02-19T20:56:15.791Z,13.05
2023-02-19T20:58:21.132Z,11.65
2023-02-19T21:00:26.889Z,17.58
2023-02-19T21:02:31.910Z,12.95
2023-02-19T21:04:37.076Z,11.95
2023-02-19T21:06:42.588Z,11.80
2023-02-19T21:08:47.626Z,14.32
2023-02-19T21:10:52.562Z,11.55
2023-02-19T21:13:00.372Z,12.40
2023-02-19T21:15:05.590Z,11.85
2023-02-19T21:17:10.602Z,15.98
2023-02-19T21:19:15.603Z,13.00
2023-02-19T21:21:21.290Z,14.43
2023-02-19T21:23:27.174Z,15.23
2023-02-19T21:25:33.244Z,16.10
2023-02-19T21:27:39.541Z,14.32
2023-02-19T21:29:47.012Z,13.48
2023-02-19T21:31:54.820Z,13.52
2023-02-19T21:33:59.931Z,16.08
2023-02-19T21:36:05.537Z,14.75
2023-02-19T21:38:11.158Z,15.05
2023-02-19T21:40:17.122Z,12.40
2023-02-19T21:42:22.426Z,15.32
2023-02-19T21:44:27.758Z,13.77
2023-02-19T21:46:35.638Z,16.20
2023-02-19T21:50:46.496Z,16.98
2023-02-19T21:52:51.806Z,16.92
2023-02-19T21:54:56.751Z,19.45
2023-02-19T21:57:06.191Z,21.73
2023-02-19T21:59:11.634Z,15.27
2023-02-19T22:01:16.623Z,20.83
2023-02-19T22:03:24.425Z,21.52
2023-02-19T22:05:29.590Z,19.20
2023-02-19T22:07:34.689Z,21.88
2023-02-19T22:09:40.080Z,17.17
2023-02-19T22:11:45.555Z,19.17
2023-02-19T22:13:50.533Z,18.00
2023-02-19T22:15:55.828Z,17.15
2023-02-19T22:18:01.115Z,19.23
2023-02-19T22:20:10.736Z,18.25
2023-02-19T22:22:15.792Z,18.77
2023-02-19T22:24:23.280Z,20.20
2023-02-19T22:26:31.521Z,19.40
2023-02-19T22:28:36.530Z,19.27
2023-02-19T22:30:43.240Z,16.52
2023-02-19T22:32:48.198Z,17.58
2023-02-19T22:34:53.376Z,19.85
2023-02-19T22:37:01.295Z,20.48
2023-02-19T22:39:08.020Z,15.55
2023-02-19T22:41:13.106Z,17.42
2023-02-19T22:43:20.768Z,17.17
2023-02-19T22:45:26.287Z,20.48
2023-02-19T22:47:32.182Z,12.07
2023-02-19T22:49:40.086Z,12.23
2023-02-19T22:51:56.198Z,15.90
2023-02-19T22:54:03.704Z,14.65
2023-02-19T22:56:09.730Z,15.50
2023-02-19T22:58:14.775Z,14.75
2023-02-19T23:00:22.064Z,12.73
2023-02-19T23:02:28.262Z,12.95
2023-02-19T23:04:33.212Z,16.33
2023-02-19T23:06:41.869Z,15.93
2023-02-19T23:08:47.234Z,14.98
2023-02-19T23:10:54.844Z,13.73
2023-02-19T23:12:59.833Z,15.70
2023-02-19T23:15:04.994Z,13.82
2023-02-19T23:17:10.477Z,13.15
2023-02-19T23:19:18.516Z,12.75
2023-02-19T23:21:25.670Z,12.57
2023-02-19T23:23:30.626Z,14.73
2023-02-19T23:25:35.592Z,17.40
2023-02-19T23:27:43.160Z,13.40
2023-02-19T23:29:48.128Z,13.95
2023-02-19T23:31:53.267Z,12.27
2023-02-19T23:33:58.575Z,12.50
2023-02-19T23:36:04.411Z,14.48
2023-02-19T23:38:09.827Z,13.77
2023-02-19T23:40:16.974Z,17.58
2023-02-19T23:42:21.911Z,13.77
2023-02-19T23:44:29.796Z,14.02
2023-02-19T23:46:34.865Z,13.25
2023-02-19T23:48:39.784Z,11.18
2023-02-19T23:50:45.002Z,14.57
2023-02-19T23:52:50.433Z,13.65
2023-02-19T23:54:55.418Z,10.90
2023-02-19T23:57:03.983Z,9.77
2023-02-19T23:59:09.788Z,9.30
